Terminal Aerodrome Forecast
Issued by NWS

Home | Current Version | Previous Version | Text Only | Print | Product List | Glossary On
Versions: 1 2 3 4 5 6 7 8 9 10 11 12 13 14 15 16 17 18 19 20 21 22 23 24 25 26 27 28 29 30 31 32 33 34 35 36 37 38 39 40 41 42 43 44 45 46 47 48 49
000
FTUS44 KHGX 311521 AAA
TAFIAH
TAF AMD
KIAH 311521Z 3115/0118 VRB03KT P6SM SCT020 SCT200
     FM311800 14010KT P6SM VCSH SCT040 BKN250
     FM010000 16007KT P6SM BKN250
     FM011000 VRB03KT P6SM BKN250
     FM011500 12005KT P6SM BKN250=

USA.gov is the U.S. government's official web portal to all federal, state and local government web resources and services.